This is the latest recevied weather packets stored in our database for station/object KG7QQL. If no packets are shown the sender has not sent any weather packets the latest 10 day(s).
| Time | Temp. | Humidity | Pressure | Rain* | Wind** | Luminosity | Snow |
|---|---|---|---|---|---|---|---|
| 1788471358 | 17.78° C | 70% | - | 0 mm | - | - | - |
| 1788471054 | 18.33° C | 69% | - | 0 mm | - | - | - |
| 1788470750 | 17.78° C | 71% | - | 0 mm | - | - | - |
| 1788470445 | 17.78° C | 69% | - | 0 mm | - | - | - |
| 1788470140 | 17.78° C | 71% | - | 0 mm | - | - | - |
| 1788469836 | 17.78° C | 70% | - | 0 mm | - | - | - |
| 1788469227 | 17.22° C | 70% | - | 0 mm | - | - | - |
| 1788468926 | 17.22° C | 70% | - | 0 mm | - | - | - |
| 1788468621 | 17.78° C | 69% | - | 0 mm | - | - | - |
| 1788468317 | 17.78° C | 70% | - | 0 mm | - | - | - |
| 1788468012 | 17.78° C | 72% | - | 0 mm | - | - | - |
| 1788467708 | 17.22° C | 71% | - | 0 mm | - | - | - |
| 1788467407 | 17.22° C | 73% | - | 0 mm | - | - | - |
| 1788467103 | 17.22° C | 71% | - | 0 mm | - | - | - |
| 1788466798 | 17.22° C | 71% | - | 0 mm | - | - | - |
| 1788465887 | 18.33° C | 69% | - | 0 mm | - | - | - |
| 1788465278 | 17.22° C | 72% | - | 0 mm | - | - | - |
| 1788464668 | 16.67° C | 74% | - | 0 mm | - | - | - |
| 1788464363 | 17.22° C | 72% | - | 0 mm | - | - | - |
| 1788464060 | 16.67° C | 72% | - | 0 mm | - | - | - |
| 1788463754 | 17.78° C | 70% | - | 0 mm | - | - | - |
| 1788450987 | 15° C | 81% | - | 0 mm | - | - | - |
| 1788450682 | 15.56° C | 80% | - | 0 mm | - | - | - |
| 1788448251 | 13.89° C | 87% | - | 0 mm | - | - | - |
| 1788447641 | 13.33° C | 88% | - | 0 mm | - | - | - |
* Rain latest hour (hover to see other rain measurements)
** Current wind speed in m/s (hover to see current wind gust speed)